CFTIW CYPY-CYSF
Flight info
| Callsign | CFTIW |
|---|---|
| Flight time | 1h 8m |
| Altitude | 9000 |
| Route | DCT |
| Aircraft | BE58/L-SDE3/1200 |
Departure
| Time | 2026-05-05 10:40 |
|---|---|
| Airport | Fort Chipewyan Airport (CYPY) |
Arrival
| Time | 2026-05-05 11:48 |
|---|---|
| Airport | Stony Rapids Airport (CYSF) |
| Time | Latitude | Longitude | Altitude | Speed | Heading |
|---|---|---|---|---|---|
| 2026-05-05 10:28 | 58.76687 | -111.11401 | 739 ft | 0 kts | 235° |
| 2026-05-05 10:33 | 58.76688 | -111.11399 | 739 ft | 2 kts | 235° |
| 2026-05-05 10:33 | 58.76697 | -111.11376 | 739 ft | 2 kts | 235° |
| 2026-05-05 10:34 | 58.76704 | -111.11355 | 740 ft | 0 kts | 235° |
| 2026-05-05 10:36 | 58.76703 | -111.11358 | 740 ft | 3 kts | 227° |
| 2026-05-05 10:36 | 58.76709 | -111.11332 | 740 ft | 9 kts | 1° |
| 2026-05-05 10:37 | 58.76761 | -111.11365 | 741 ft | 8 kts | 318° |
| 2026-05-05 10:37 | 58.76806 | -111.11445 | 741 ft | 7 kts | 311° |
| 2026-05-05 10:37 | 58.76807 | -111.11578 | 739 ft | 18 kts | 238° |
| 2026-05-05 10:37 | 58.76695 | -111.11877 | 734 ft | 33 kts | 233° |
| 2026-05-05 10:38 | 58.76555 | -111.12227 | 723 ft | 33 kts | 234° |
| 2026-05-05 10:38 | 58.76419 | -111.12567 | 715 ft | 32 kts | 235° |
| 2026-05-05 10:38 | 58.76354 | -111.12761 | 711 ft | 10 kts | 214° |
| 2026-05-05 10:38 | 58.76349 | -111.12712 | 713 ft | 2 kts | 46° |
| 2026-05-05 10:39 | 58.76350 | -111.12712 | 713 ft | 0 kts | 45° |
| 2026-05-05 10:39 | 58.76361 | -111.12688 | 715 ft | 12 kts | 48° |
| 2026-05-05 10:39 | 58.76535 | -111.12263 | 723 ft | 80 kts | 51° |
| 2026-05-05 10:40 | 58.77021 | -111.11114 | 907 ft | 125 kts | 50° |
| 2026-05-05 10:40 | 58.77585 | -111.09842 | 1513 ft | 124 kts | 49° |
| 2026-05-05 10:40 | 58.78153 | -111.08657 | 2208 ft | 122 kts | 48° |
| 2026-05-05 10:40 | 58.78678 | -111.07348 | 2853 ft | 125 kts | 62° |
| 2026-05-05 10:41 | 58.78906 | -111.05695 | 3451 ft | 130 kts | 87° |
| 2026-05-05 10:41 | 58.78860 | -111.03966 | 4129 ft | 125 kts | 97° |
| 2026-05-05 10:41 | 58.78706 | -111.02284 | 4697 ft | 132 kts | 98° |
| 2026-05-05 10:41 | 58.78598 | -111.00567 | 5332 ft | 126 kts | 92° |
| 2026-05-05 10:42 | 58.78546 | -110.97386 | 6599 ft | 110 kts | 86° |
| 2026-05-05 10:42 | 58.78527 | -110.95996 | 7184 ft | 97 kts | 78° |
| 2026-05-05 10:42 | 58.78644 | -110.94858 | 7752 ft | 77 kts | 62° |
| 2026-05-05 10:43 | 58.78784 | -110.93772 | 8053 ft | 93 kts | 71° |
| 2026-05-05 10:43 | 58.78917 | -110.92511 | 8434 ft | 98 kts | 70° |
| 2026-05-05 10:43 | 58.79058 | -110.91222 | 8850 ft | 98 kts | 69° |
| 2026-05-05 10:43 | 58.79216 | -110.89841 | 9028 ft | 121 kts | 71° |
| 2026-05-05 10:44 | 58.79406 | -110.88055 | 9038 ft | 148 kts | 73° |
| 2026-05-05 10:44 | 58.79630 | -110.86002 | 9035 ft | 163 kts | 73° |
| 2026-05-05 10:44 | 58.79871 | -110.83840 | 9029 ft | 170 kts | 73° |
| 2026-05-05 10:44 | 58.80122 | -110.81586 | 9028 ft | 173 kts | 73° |
| 2026-05-05 10:45 | 58.80369 | -110.79349 | 9025 ft | 168 kts | 73° |
| 2026-05-05 10:45 | 58.80613 | -110.77159 | 9031 ft | 166 kts | 73° |
| 2026-05-05 10:45 | 58.80854 | -110.74990 | 9032 ft | 165 kts | 73° |
| 2026-05-05 10:45 | 58.80960 | -110.74031 | 9031 ft | 165 kts | 73° |
| 2026-05-05 10:46 | 58.81113 | -110.72637 | 9034 ft | 165 kts | 73° |
| 2026-05-05 10:46 | 58.81352 | -110.70469 | 9012 ft | 165 kts | 73° |
| 2026-05-05 10:46 | 58.81589 | -110.68305 | 9009 ft | 165 kts | 73° |
| 2026-05-05 10:46 | 58.81826 | -110.66148 | 9014 ft | 164 kts | 73° |
| 2026-05-05 10:47 | 58.82061 | -110.63994 | 9014 ft | 164 kts | 73° |
| 2026-05-05 10:47 | 58.82297 | -110.61838 | 9020 ft | 164 kts | 73° |
| 2026-05-05 10:47 | 58.82532 | -110.59685 | 9021 ft | 164 kts | 73° |
| 2026-05-05 10:47 | 58.82766 | -110.57532 | 9020 ft | 164 kts | 73° |
| 2026-05-05 10:48 | 58.83001 | -110.55379 | 9026 ft | 164 kts | 73° |
| 2026-05-05 10:48 | 58.83235 | -110.53219 | 9030 ft | 164 kts | 73° |
| 2026-05-05 10:48 | 58.83468 | -110.51068 | 9033 ft | 164 kts | 73° |
| 2026-05-05 10:48 | 58.83701 | -110.48914 | 9033 ft | 164 kts | 73° |
| 2026-05-05 10:49 | 58.83934 | -110.46754 | 9035 ft | 164 kts | 73° |
| 2026-05-05 10:49 | 58.84167 | -110.44595 | 9038 ft | 164 kts | 73° |
| 2026-05-05 10:49 | 58.84399 | -110.42437 | 9037 ft | 164 kts | 73° |
| 2026-05-05 10:49 | 58.84631 | -110.40281 | 9038 ft | 164 kts | 73° |
| 2026-05-05 10:50 | 58.84863 | -110.38122 | 9041 ft | 164 kts | 73° |
| 2026-05-05 10:50 | 58.85091 | -110.35987 | 9038 ft | 164 kts | 73° |
| 2026-05-05 10:50 | 58.85322 | -110.33827 | 9039 ft | 164 kts | 73° |
| 2026-05-05 10:50 | 58.85552 | -110.31667 | 9039 ft | 164 kts | 73° |
| 2026-05-05 10:51 | 58.85782 | -110.29511 | 9038 ft | 164 kts | 73° |
| 2026-05-05 10:51 | 58.86012 | -110.27347 | 9040 ft | 164 kts | 73° |
| 2026-05-05 10:51 | 58.86242 | -110.25190 | 9045 ft | 164 kts | 73° |
| 2026-05-05 10:51 | 58.86471 | -110.23026 | 9044 ft | 164 kts | 73° |
| 2026-05-05 10:52 | 58.86700 | -110.20862 | 9042 ft | 164 kts | 73° |
| 2026-05-05 10:52 | 58.86928 | -110.18701 | 9043 ft | 164 kts | 73° |
| 2026-05-05 10:52 | 58.87156 | -110.16541 | 9043 ft | 164 kts | 73° |
| 2026-05-05 10:52 | 58.87306 | -110.15111 | 9045 ft | 164 kts | 73° |
| 2026-05-05 10:53 | 58.87534 | -110.12947 | 9043 ft | 164 kts | 73° |
| 2026-05-05 10:53 | 58.87761 | -110.10786 | 9043 ft | 164 kts | 73° |
| 2026-05-05 10:53 | 58.87988 | -110.08623 | 9041 ft | 164 kts | 73° |
| 2026-05-05 10:53 | 58.88213 | -110.06464 | 9044 ft | 164 kts | 73° |
| 2026-05-05 10:54 | 58.88439 | -110.04300 | 9045 ft | 164 kts | 73° |
| 2026-05-05 10:54 | 58.88665 | -110.02140 | 9044 ft | 164 kts | 73° |
| 2026-05-05 10:54 | 58.88890 | -109.99973 | 9042 ft | 164 kts | 73° |
| 2026-05-05 10:54 | 58.89114 | -109.97810 | 9044 ft | 164 kts | 73° |
| 2026-05-05 10:55 | 58.89339 | -109.95648 | 9049 ft | 164 kts | 73° |
| 2026-05-05 10:55 | 58.89563 | -109.93482 | 9047 ft | 164 kts | 73° |
| 2026-05-05 10:55 | 58.89787 | -109.91318 | 9043 ft | 164 kts | 73° |
| 2026-05-05 10:55 | 58.90010 | -109.89153 | 9046 ft | 164 kts | 73° |
| 2026-05-05 10:56 | 58.90230 | -109.87017 | 9049 ft | 164 kts | 73° |
| 2026-05-05 10:56 | 58.90453 | -109.84855 | 9047 ft | 164 kts | 73° |
| 2026-05-05 10:56 | 58.90674 | -109.82690 | 9047 ft | 164 kts | 73° |
| 2026-05-05 10:56 | 58.90896 | -109.80527 | 9043 ft | 164 kts | 73° |
| 2026-05-05 10:57 | 58.91118 | -109.78362 | 9050 ft | 164 kts | 73° |
| 2026-05-05 10:57 | 58.91339 | -109.76196 | 9046 ft | 164 kts | 73° |
| 2026-05-05 10:57 | 58.91559 | -109.74028 | 9043 ft | 164 kts | 73° |
| 2026-05-05 10:57 | 58.91780 | -109.71861 | 9048 ft | 164 kts | 73° |
| 2026-05-05 10:58 | 58.92000 | -109.69697 | 9046 ft | 164 kts | 73° |
| 2026-05-05 10:58 | 58.92219 | -109.67537 | 9045 ft | 164 kts | 73° |
| 2026-05-05 10:58 | 58.92438 | -109.65369 | 9048 ft | 164 kts | 73° |
| 2026-05-05 10:58 | 58.92657 | -109.63206 | 9047 ft | 164 kts | 73° |
| 2026-05-05 10:59 | 58.92875 | -109.61042 | 9047 ft | 164 kts | 73° |
| 2026-05-05 10:59 | 58.93093 | -109.58879 | 9049 ft | 164 kts | 73° |
| 2026-05-05 10:59 | 58.93310 | -109.56716 | 9047 ft | 164 kts | 73° |
| 2026-05-05 10:59 | 58.93527 | -109.54552 | 9047 ft | 164 kts | 73° |
| 2026-05-05 11:00 | 58.93744 | -109.52385 | 9045 ft | 164 kts | 73° |
| 2026-05-05 11:00 | 58.93960 | -109.50220 | 9046 ft | 164 kts | 73° |
| 2026-05-05 11:00 | 58.94176 | -109.48053 | 9047 ft | 164 kts | 73° |
| 2026-05-05 11:00 | 58.94392 | -109.45892 | 9046 ft | 164 kts | 73° |
| 2026-05-05 11:01 | 58.94606 | -109.43729 | 9047 ft | 163 kts | 73° |
| 2026-05-05 11:01 | 58.94821 | -109.41569 | 9042 ft | 163 kts | 73° |
| 2026-05-05 11:01 | 58.95035 | -109.39405 | 9042 ft | 163 kts | 73° |
| 2026-05-05 11:01 | 58.95246 | -109.37274 | 9043 ft | 163 kts | 73° |
| 2026-05-05 11:02 | 58.95462 | -109.35086 | 9042 ft | 163 kts | 73° |
| 2026-05-05 11:02 | 58.95675 | -109.32926 | 9035 ft | 163 kts | 73° |
| 2026-05-05 11:02 | 58.95884 | -109.30791 | 9042 ft | 163 kts | 73° |
| 2026-05-05 11:02 | 58.96100 | -109.28598 | 9043 ft | 163 kts | 73° |
| 2026-05-05 11:03 | 58.96308 | -109.26467 | 9039 ft | 163 kts | 73° |
| 2026-05-05 11:03 | 58.96523 | -109.24276 | 9053 ft | 163 kts | 73° |
| 2026-05-05 11:03 | 58.96731 | -109.22137 | 9050 ft | 163 kts | 73° |
| 2026-05-05 11:03 | 58.96942 | -109.19975 | 9047 ft | 163 kts | 73° |
| 2026-05-05 11:04 | 58.97152 | -109.17811 | 9048 ft | 163 kts | 73° |
| 2026-05-05 11:04 | 58.97363 | -109.15648 | 9049 ft | 163 kts | 73° |
| 2026-05-05 11:04 | 58.97572 | -109.13484 | 9047 ft | 164 kts | 73° |
| 2026-05-05 11:04 | 58.97782 | -109.11318 | 9050 ft | 164 kts | 73° |
| 2026-05-05 11:05 | 58.97991 | -109.09149 | 9046 ft | 163 kts | 73° |
| 2026-05-05 11:05 | 58.98200 | -109.06982 | 9047 ft | 163 kts | 73° |
| 2026-05-05 11:05 | 58.98409 | -109.04816 | 9048 ft | 164 kts | 73° |
| 2026-05-05 11:05 | 58.98617 | -109.02639 | 9049 ft | 164 kts | 73° |
| 2026-05-05 11:06 | 58.98825 | -109.00462 | 9050 ft | 164 kts | 73° |
| 2026-05-05 11:06 | 58.99033 | -108.98289 | 9045 ft | 164 kts | 73° |
| 2026-05-05 11:06 | 58.99241 | -108.96119 | 9047 ft | 164 kts | 73° |
| 2026-05-05 11:06 | 58.99448 | -108.93940 | 9051 ft | 164 kts | 73° |
| 2026-05-05 11:07 | 58.99655 | -108.91770 | 9050 ft | 164 kts | 73° |
| 2026-05-05 11:07 | 58.99861 | -108.89593 | 9046 ft | 163 kts | 73° |
| 2026-05-05 11:07 | 59.00066 | -108.87429 | 9049 ft | 163 kts | 73° |
| 2026-05-05 11:07 | 59.00271 | -108.85267 | 9047 ft | 163 kts | 73° |
| 2026-05-05 11:08 | 59.00475 | -108.83106 | 9049 ft | 163 kts | 73° |
| 2026-05-05 11:08 | 59.00678 | -108.80942 | 9048 ft | 163 kts | 73° |
| 2026-05-05 11:08 | 59.00879 | -108.78808 | 9051 ft | 163 kts | 73° |
| 2026-05-05 11:08 | 59.01083 | -108.76644 | 9047 ft | 163 kts | 73° |
| 2026-05-05 11:09 | 59.01285 | -108.74477 | 9046 ft | 163 kts | 73° |
| 2026-05-05 11:09 | 59.01488 | -108.72314 | 9047 ft | 163 kts | 73° |
| 2026-05-05 11:09 | 59.01690 | -108.70152 | 9047 ft | 163 kts | 73° |
| 2026-05-05 11:09 | 59.01891 | -108.67986 | 9049 ft | 163 kts | 73° |
| 2026-05-05 11:10 | 59.02093 | -108.65820 | 9047 ft | 163 kts | 73° |
| 2026-05-05 11:10 | 59.02294 | -108.63654 | 9047 ft | 163 kts | 73° |
| 2026-05-05 11:10 | 59.02494 | -108.61489 | 9051 ft | 163 kts | 73° |
| 2026-05-05 11:10 | 59.02694 | -108.59323 | 9047 ft | 163 kts | 73° |
| 2026-05-05 11:11 | 59.02894 | -108.57156 | 9050 ft | 163 kts | 73° |
| 2026-05-05 11:11 | 59.03093 | -108.54991 | 9049 ft | 163 kts | 73° |
| 2026-05-05 11:11 | 59.03293 | -108.52829 | 9045 ft | 163 kts | 73° |
| 2026-05-05 11:11 | 59.03490 | -108.50666 | 9044 ft | 163 kts | 73° |
| 2026-05-05 11:12 | 59.03689 | -108.48499 | 9045 ft | 163 kts | 73° |
| 2026-05-05 11:12 | 59.03887 | -108.46331 | 9047 ft | 163 kts | 73° |
| 2026-05-05 11:12 | 59.04082 | -108.44192 | 9044 ft | 163 kts | 73° |
| 2026-05-05 11:12 | 59.04282 | -108.41996 | 9045 ft | 163 kts | 73° |
| 2026-05-05 11:13 | 59.04479 | -108.39834 | 9047 ft | 163 kts | 73° |
| 2026-05-05 11:13 | 59.04675 | -108.37668 | 9048 ft | 163 kts | 73° |
| 2026-05-05 11:13 | 59.04871 | -108.35502 | 9049 ft | 163 kts | 73° |
| 2026-05-05 11:13 | 59.05064 | -108.33362 | 9044 ft | 163 kts | 73° |
| 2026-05-05 11:14 | 59.05260 | -108.31193 | 9046 ft | 163 kts | 73° |
| 2026-05-05 11:14 | 59.05455 | -108.29021 | 9045 ft | 163 kts | 73° |
| 2026-05-05 11:14 | 59.05650 | -108.26851 | 9048 ft | 163 kts | 73° |
| 2026-05-05 11:14 | 59.05845 | -108.24678 | 9047 ft | 163 kts | 73° |
| 2026-05-05 11:15 | 59.06039 | -108.22509 | 9045 ft | 163 kts | 73° |
| 2026-05-05 11:15 | 59.06232 | -108.20332 | 9046 ft | 163 kts | 73° |
| 2026-05-05 11:15 | 59.06426 | -108.18164 | 9044 ft | 163 kts | 73° |
| 2026-05-05 11:15 | 59.06619 | -108.15996 | 9047 ft | 163 kts | 73° |
| 2026-05-05 11:16 | 59.06811 | -108.13832 | 9045 ft | 163 kts | 73° |
| 2026-05-05 11:16 | 59.07003 | -108.11664 | 9045 ft | 162 kts | 73° |
| 2026-05-05 11:16 | 59.07194 | -108.09501 | 9046 ft | 162 kts | 73° |
| 2026-05-05 11:16 | 59.07385 | -108.07339 | 9045 ft | 162 kts | 73° |
| 2026-05-05 11:17 | 59.07574 | -108.05179 | 9045 ft | 162 kts | 73° |
| 2026-05-05 11:17 | 59.07764 | -108.03017 | 9047 ft | 162 kts | 73° |
| 2026-05-05 11:17 | 59.07954 | -108.00857 | 9045 ft | 162 kts | 73° |
| 2026-05-05 11:17 | 59.08143 | -107.98697 | 9047 ft | 162 kts | 73° |
| 2026-05-05 11:18 | 59.08331 | -107.96537 | 9049 ft | 162 kts | 73° |
| 2026-05-05 11:18 | 59.08520 | -107.94377 | 9044 ft | 162 kts | 73° |
| 2026-05-05 11:18 | 59.08706 | -107.92238 | 9047 ft | 162 kts | 73° |
| 2026-05-05 11:18 | 59.08893 | -107.90077 | 9048 ft | 162 kts | 73° |
| 2026-05-05 11:19 | 59.09081 | -107.87911 | 9044 ft | 162 kts | 73° |
| 2026-05-05 11:19 | 59.09268 | -107.85747 | 9045 ft | 162 kts | 73° |
| 2026-05-05 11:19 | 59.09454 | -107.83582 | 9044 ft | 162 kts | 73° |
| 2026-05-05 11:19 | 59.09641 | -107.81420 | 9045 ft | 162 kts | 73° |
| 2026-05-05 11:20 | 59.09826 | -107.79259 | 9048 ft | 162 kts | 73° |
| 2026-05-05 11:20 | 59.10011 | -107.77100 | 9049 ft | 162 kts | 73° |
| 2026-05-05 11:20 | 59.10196 | -107.74943 | 9049 ft | 162 kts | 73° |
| 2026-05-05 11:20 | 59.10380 | -107.72783 | 9047 ft | 162 kts | 73° |
| 2026-05-05 11:21 | 59.10564 | -107.70621 | 9049 ft | 162 kts | 73° |
| 2026-05-05 11:21 | 59.10748 | -107.68460 | 9048 ft | 162 kts | 73° |
| 2026-05-05 11:21 | 59.10931 | -107.66302 | 9047 ft | 162 kts | 73° |
| 2026-05-05 11:21 | 59.11112 | -107.64163 | 9047 ft | 162 kts | 73° |
| 2026-05-05 11:22 | 59.11295 | -107.62004 | 9045 ft | 162 kts | 73° |
| 2026-05-05 11:22 | 59.11477 | -107.59838 | 9046 ft | 162 kts | 73° |
| 2026-05-05 11:22 | 59.11660 | -107.57675 | 9047 ft | 162 kts | 73° |
| 2026-05-05 11:22 | 59.11842 | -107.55512 | 9047 ft | 162 kts | 73° |
| 2026-05-05 11:23 | 59.12023 | -107.53346 | 9046 ft | 162 kts | 73° |
| 2026-05-05 11:23 | 59.12203 | -107.51182 | 9044 ft | 162 kts | 73° |
| 2026-05-05 11:23 | 59.12384 | -107.49023 | 9041 ft | 162 kts | 73° |
| 2026-05-05 11:23 | 59.12564 | -107.46863 | 9042 ft | 162 kts | 73° |
| 2026-05-05 11:24 | 59.12744 | -107.44698 | 9042 ft | 161 kts | 73° |
| 2026-05-05 11:24 | 59.12922 | -107.42543 | 9043 ft | 161 kts | 73° |
| 2026-05-05 11:24 | 59.13102 | -107.40381 | 9045 ft | 162 kts | 73° |
| 2026-05-05 11:24 | 59.13280 | -107.38222 | 9043 ft | 161 kts | 73° |
| 2026-05-05 11:25 | 59.13457 | -107.36066 | 9046 ft | 161 kts | 73° |
| 2026-05-05 11:25 | 59.13634 | -107.33910 | 9043 ft | 161 kts | 73° |
| 2026-05-05 11:25 | 59.13811 | -107.31753 | 9042 ft | 161 kts | 73° |
| 2026-05-05 11:25 | 59.13989 | -107.29596 | 9044 ft | 161 kts | 73° |
| 2026-05-05 11:26 | 59.14162 | -107.27466 | 9041 ft | 162 kts | 73° |
| 2026-05-05 11:26 | 59.14338 | -107.25307 | 9043 ft | 161 kts | 73° |
| 2026-05-05 11:26 | 59.14514 | -107.23148 | 9043 ft | 161 kts | 73° |
| 2026-05-05 11:26 | 59.14689 | -107.20994 | 9043 ft | 161 kts | 73° |
| 2026-05-05 11:27 | 59.14864 | -107.18832 | 9043 ft | 161 kts | 73° |
| 2026-05-05 11:27 | 59.15038 | -107.16674 | 9042 ft | 161 kts | 73° |
| 2026-05-05 11:27 | 59.15213 | -107.14510 | 9042 ft | 161 kts | 73° |
| 2026-05-05 11:27 | 59.15387 | -107.12347 | 9038 ft | 162 kts | 73° |
| 2026-05-05 11:28 | 59.15561 | -107.10185 | 9037 ft | 162 kts | 73° |
| 2026-05-05 11:28 | 59.15734 | -107.08020 | 9037 ft | 161 kts | 73° |
| 2026-05-05 11:28 | 59.15907 | -107.05861 | 9037 ft | 162 kts | 73° |
| 2026-05-05 11:28 | 59.16079 | -107.03695 | 9040 ft | 162 kts | 73° |
| 2026-05-05 11:29 | 59.16252 | -107.01526 | 9037 ft | 162 kts | 73° |
| 2026-05-05 11:29 | 59.16422 | -106.99390 | 9041 ft | 162 kts | 73° |
| 2026-05-05 11:29 | 59.16592 | -106.97226 | 9035 ft | 162 kts | 73° |
| 2026-05-05 11:29 | 59.16765 | -106.95061 | 9037 ft | 162 kts | 73° |
| 2026-05-05 11:30 | 59.16935 | -106.92904 | 8986 ft | 159 kts | 73° |
| 2026-05-05 11:30 | 59.17102 | -106.90763 | 8696 ft | 162 kts | 73° |
| 2026-05-05 11:30 | 59.17272 | -106.88595 | 8451 ft | 161 kts | 74° |
| 2026-05-05 11:30 | 59.17402 | -106.86433 | 8208 ft | 161 kts | 77° |
| 2026-05-05 11:31 | 59.17511 | -106.84267 | 7947 ft | 160 kts | 77° |
| 2026-05-05 11:31 | 59.17620 | -106.82111 | 7706 ft | 159 kts | 77° |
| 2026-05-05 11:31 | 59.17731 | -106.79967 | 7470 ft | 159 kts | 77° |
| 2026-05-05 11:31 | 59.17844 | -106.77830 | 7245 ft | 157 kts | 77° |
| 2026-05-05 11:32 | 59.17956 | -106.75706 | 6982 ft | 157 kts | 77° |
| 2026-05-05 11:32 | 59.18065 | -106.73595 | 6736 ft | 157 kts | 78° |
| 2026-05-05 11:32 | 59.18144 | -106.71476 | 6469 ft | 156 kts | 78° |
| 2026-05-05 11:32 | 59.18222 | -106.69362 | 6245 ft | 156 kts | 79° |
| 2026-05-05 11:33 | 59.18302 | -106.67272 | 6070 ft | 154 kts | 78° |
| 2026-05-05 11:33 | 59.18383 | -106.65186 | 5870 ft | 154 kts | 78° |
| 2026-05-05 11:33 | 59.18465 | -106.63114 | 5689 ft | 153 kts | 78° |
| 2026-05-05 11:33 | 59.18549 | -106.61054 | 5518 ft | 152 kts | 78° |
| 2026-05-05 11:34 | 59.18635 | -106.59007 | 5345 ft | 151 kts | 78° |
| 2026-05-05 11:34 | 59.18723 | -106.56963 | 5185 ft | 151 kts | 78° |
| 2026-05-05 11:34 | 59.18814 | -106.54929 | 5025 ft | 151 kts | 78° |
| 2026-05-05 11:34 | 59.18904 | -106.52931 | 4875 ft | 149 kts | 78° |
| 2026-05-05 11:35 | 59.18998 | -106.50916 | 4711 ft | 149 kts | 78° |
| 2026-05-05 11:35 | 59.19092 | -106.48902 | 4557 ft | 149 kts | 78° |
| 2026-05-05 11:35 | 59.19188 | -106.46900 | 4409 ft | 148 kts | 78° |
| 2026-05-05 11:35 | 59.19285 | -106.44905 | 4265 ft | 148 kts | 78° |
| 2026-05-05 11:36 | 59.19383 | -106.42917 | 4126 ft | 147 kts | 78° |
| 2026-05-05 11:36 | 59.19484 | -106.40939 | 3996 ft | 146 kts | 78° |
| 2026-05-05 11:36 | 59.19585 | -106.38967 | 3875 ft | 146 kts | 78° |
| 2026-05-05 11:36 | 59.19688 | -106.37004 | 3739 ft | 146 kts | 78° |
| 2026-05-05 11:37 | 59.19793 | -106.35040 | 3615 ft | 145 kts | 78° |
| 2026-05-05 11:37 | 59.19899 | -106.33081 | 3490 ft | 145 kts | 78° |
| 2026-05-05 11:37 | 59.20005 | -106.31136 | 3381 ft | 144 kts | 78° |
| 2026-05-05 11:37 | 59.20112 | -106.29195 | 3264 ft | 144 kts | 78° |
| 2026-05-05 11:38 | 59.20219 | -106.27260 | 3143 ft | 144 kts | 78° |
| 2026-05-05 11:38 | 59.20327 | -106.25321 | 3029 ft | 144 kts | 78° |
| 2026-05-05 11:38 | 59.20436 | -106.23387 | 2926 ft | 143 kts | 78° |
| 2026-05-05 11:38 | 59.20546 | -106.21455 | 2829 ft | 143 kts | 78° |
| 2026-05-05 11:39 | 59.20655 | -106.19525 | 2725 ft | 143 kts | 78° |
| 2026-05-05 11:39 | 59.20765 | -106.17592 | 2612 ft | 144 kts | 78° |
| 2026-05-05 11:39 | 59.20878 | -106.15676 | 2516 ft | 144 kts | 78° |
| 2026-05-05 11:39 | 59.20994 | -106.13737 | 2412 ft | 144 kts | 77° |
| 2026-05-05 11:40 | 59.21167 | -106.11811 | 2323 ft | 144 kts | 72° |
| 2026-05-05 11:40 | 59.21422 | -106.09943 | 2110 ft | 145 kts | 69° |
| 2026-05-05 11:40 | 59.21710 | -106.08051 | 1915 ft | 145 kts | 70° |
| 2026-05-05 11:40 | 59.21965 | -106.06255 | 1845 ft | 128 kts | 71° |
| 2026-05-05 11:41 | 59.22173 | -106.04745 | 1835 ft | 103 kts | 71° |
| 2026-05-05 11:41 | 59.22347 | -106.03453 | 1845 ft | 97 kts | 71° |
| 2026-05-05 11:41 | 59.22519 | -106.02200 | 1842 ft | 95 kts | 70° |
| 2026-05-05 11:41 | 59.22694 | -106.00967 | 1842 ft | 94 kts | 70° |
| 2026-05-05 11:42 | 59.22866 | -105.99736 | 1843 ft | 95 kts | 70° |
| 2026-05-05 11:42 | 59.23037 | -105.98496 | 1843 ft | 94 kts | 70° |
| 2026-05-05 11:42 | 59.23211 | -105.97262 | 1843 ft | 94 kts | 70° |
| 2026-05-05 11:42 | 59.23383 | -105.96027 | 1840 ft | 94 kts | 70° |
| 2026-05-05 11:43 | 59.23554 | -105.94789 | 1844 ft | 95 kts | 70° |
| 2026-05-05 11:43 | 59.23724 | -105.93549 | 1847 ft | 94 kts | 70° |
| 2026-05-05 11:43 | 59.23895 | -105.92304 | 1850 ft | 96 kts | 70° |
| 2026-05-05 11:43 | 59.24067 | -105.91034 | 1853 ft | 97 kts | 69° |
| 2026-05-05 11:44 | 59.24182 | -105.90193 | 1855 ft | 97 kts | 69° |
| 2026-05-05 11:44 | 59.24414 | -105.88502 | 1854 ft | 97 kts | 70° |
| 2026-05-05 11:44 | 59.24527 | -105.87647 | 1848 ft | 96 kts | 69° |
| 2026-05-05 11:44 | 59.24749 | -105.85976 | 1861 ft | 91 kts | 68° |
| 2026-05-05 11:45 | 59.24948 | -105.84798 | 1522 ft | 97 kts | 65° |
| 2026-05-05 11:45 | 59.25431 | -105.84246 | 1731 ft | 89 kts | 318° |
| 2026-05-05 11:45 | 59.25482 | -105.85080 | 1771 ft | 102 kts | 245° |
| 2026-05-05 11:45 | 59.24967 | -105.86119 | 1849 ft | 107 kts | 253° |
| 2026-05-05 11:46 | 59.24770 | -105.87495 | 2071 ft | 104 kts | 259° |
| 2026-05-05 11:46 | 59.24507 | -105.88807 | 2131 ft | 107 kts | 257° |
| 2026-05-05 11:46 | 59.24172 | -105.90096 | 2112 ft | 106 kts | 226° |
| 2026-05-05 11:46 | 59.23482 | -105.90115 | 1890 ft | 109 kts | 126° |
| 2026-05-05 11:47 | 59.23515 | -105.88915 | 1611 ft | 97 kts | 38° |
| 2026-05-05 11:47 | 59.24021 | -105.88259 | 1357 ft | 79 kts | 36° |
| 2026-05-05 11:47 | 59.24417 | -105.87515 | 1168 ft | 80 kts | 52° |
| 2026-05-05 11:47 | 59.24675 | -105.86504 | 1017 ft | 86 kts | 68° |
| 2026-05-05 11:48 | 59.25009 | -105.84387 | 790 ft | 61 kts | 73° |
| 2026-05-05 11:48 | 59.25066 | -105.83975 | 792 ft | 20 kts | 68° |
| 2026-05-05 11:48 | 59.25104 | -105.83745 | 794 ft | 12 kts | 53° |
| 2026-05-05 11:49 | 59.25178 | -105.83731 | 793 ft | 12 kts | 347° |
| 2026-05-05 11:49 | 59.25258 | -105.83762 | 792 ft | 11 kts | 343° |
| 2026-05-05 11:49 | 59.25295 | -105.83785 | 790 ft | 0 kts | 343° |